createdAt,value
2022-11-23T00:01:30.606Z,1.50
2022-11-23T00:04:02.211Z,1.37
2022-11-23T00:06:29.451Z,1.40
2022-11-23T00:08:56.438Z,1.57
2022-11-23T00:11:25.914Z,1.47
2022-11-23T00:13:53.935Z,1.23
2022-11-23T00:16:27.122Z,1.20
2022-11-23T00:19:00.304Z,1.50
2022-11-23T00:21:30.615Z,1.60
2022-11-23T00:23:58.089Z,1.90
2022-11-23T00:26:25.040Z,1.30
2022-11-23T00:28:51.973Z,1.63
2022-11-23T00:31:20.727Z,1.60
2022-11-23T00:33:56.438Z,1.30
2022-11-23T00:36:26.403Z,1.20
2022-11-23T00:38:57.653Z,1.23
2022-11-23T00:41:28.210Z,1.60
2022-11-23T00:43:55.474Z,1.27
2022-11-23T00:46:27.927Z,1.30
2022-11-23T00:48:57.428Z,1.30
2022-11-23T00:51:30.153Z,1.10
2022-11-23T00:53:57.951Z,1.40
2022-11-23T00:56:26.514Z,1.60
2022-11-23T00:58:56.202Z,1.60
2022-11-23T01:01:30.931Z,1.27
2022-11-23T01:03:59.319Z,1.70
2022-11-23T01:06:33.122Z,1.20
2022-11-23T01:09:13.373Z,1.63
2022-11-23T01:11:40.964Z,1.70
2022-11-23T01:14:08.227Z,1.10
2022-11-23T01:16:39.124Z,1.20
2022-11-23T01:19:11.502Z,1.80
2022-11-23T01:21:39.710Z,1.73
2022-11-23T01:24:17.105Z,1.00
2022-11-23T01:26:44.696Z,1.50
2022-11-23T01:29:12.484Z,1.67
2022-11-23T01:31:46.148Z,1.37
2022-11-23T01:34:15.620Z,1.50
2022-11-23T01:36:43.610Z,1.27
2022-11-23T01:39:11.779Z,1.47
2022-11-23T01:41:41.854Z,1.73
2022-11-23T01:44:29.955Z,1.70
2022-11-23T01:47:06.507Z,1.60
2022-11-23T01:49:44.314Z,1.67
2022-11-23T01:52:17.245Z,1.70
2022-11-23T01:54:53.553Z,1.43
2022-11-23T01:57:28.946Z,1.87
2022-11-23T01:59:57.454Z,2.00
2022-11-23T02:02:28.320Z,1.57
2022-11-23T02:04:57.574Z,1.70
2022-11-23T02:07:25.487Z,1.43
2022-11-23T02:09:52.965Z,1.30
2022-11-23T02:12:19.985Z,1.60
2022-11-23T02:14:47.017Z,1.93
2022-11-23T02:17:14.431Z,1.80
2022-11-23T02:20:09.717Z,1.80
2022-11-23T02:23:04.343Z,1.50
2022-11-23T02:25:45.483Z,1.77
2022-11-23T02:28:23.739Z,1.87
2022-11-23T02:30:53.592Z,1.70
2022-11-23T02:33:25.224Z,1.67
2022-11-23T02:36:02.296Z,1.80
2022-11-23T02:38:33.644Z,1.83
2022-11-23T02:41:01.281Z,1.90
2022-11-23T02:43:28.464Z,1.90
2022-11-23T02:46:02.088Z,1.30
2022-11-23T02:48:29.356Z,1.50
2022-11-23T02:50:56.294Z,2.00
2022-11-23T02:53:24.356Z,1.70
2022-11-23T02:55:53.929Z,1.67
2022-11-23T02:58:20.904Z,1.60
2022-11-23T03:00:48.045Z,1.50
2022-11-23T03:03:17.791Z,1.53
2022-11-23T03:05:45.106Z,2.17
2022-11-23T03:08:12.122Z,2.00
2022-11-23T03:10:40.462Z,1.50
2022-11-23T03:13:07.545Z,1.47
2022-11-23T03:15:36.063Z,1.50
2022-11-23T03:18:05.027Z,1.90
2022-11-23T03:20:32.542Z,1.50
2022-11-23T03:22:59.554Z,1.63
2022-11-23T03:25:27.117Z,2.30
2022-11-23T03:27:56.658Z,1.60
2022-11-23T03:30:23.785Z,1.17
2022-11-23T03:32:50.799Z,1.57
2022-11-23T03:35:19.049Z,1.70
2022-11-23T03:38:18.433Z,1.73
2022-11-23T03:40:46.349Z,1.60
2022-11-23T03:43:19.760Z,1.77
2022-11-23T03:45:47.343Z,1.67
2022-11-23T03:48:15.724Z,1.53
2022-11-23T03:50:44.377Z,1.87
2022-11-23T03:53:11.684Z,1.77
2022-11-23T03:55:38.990Z,1.97
2022-11-23T03:58:06.003Z,1.70
2022-11-23T04:00:35.866Z,1.83
2022-11-23T04:03:04.356Z,1.67
2022-11-23T04:05:50.285Z,1.77
2022-11-23T04:08:46.392Z,1.80
2022-11-23T04:11:20.768Z,2.43
2022-11-23T04:13:49.382Z,1.80
2022-11-23T04:16:16.343Z,1.60
2022-11-23T04:18:43.472Z,1.80
2022-11-23T04:21:11.005Z,1.47
2022-11-23T04:23:38.109Z,2.20
2022-11-23T04:26:07.993Z,1.67
2022-11-23T04:28:41.212Z,1.53
2022-11-23T04:31:08.313Z,1.90
2022-11-23T04:33:45.901Z,1.63
2022-11-23T04:36:15.358Z,2.17
2022-11-23T04:38:43.231Z,1.60
2022-11-23T04:41:11.198Z,1.20
2022-11-23T04:43:39.494Z,1.63
2022-11-23T04:46:07.207Z,1.70
2022-11-23T04:48:34.184Z,1.70
2022-11-23T04:51:01.397Z,1.73
2022-11-23T04:53:34.526Z,1.63
2022-11-23T04:56:02.073Z,1.97
2022-11-23T04:58:34.672Z,1.87
2022-11-23T05:01:03.050Z,1.90
2022-11-23T05:03:34.960Z,1.93
2022-11-23T05:06:07.330Z,1.80
2022-11-23T05:08:39.720Z,1.50
2022-11-23T05:11:20.711Z,1.77
2022-11-23T05:13:49.262Z,1.77
2022-11-23T05:16:16.803Z,1.77
2022-11-23T05:18:44.197Z,1.80
2022-11-23T05:21:11.258Z,1.90
2022-11-23T05:23:38.406Z,1.70
2022-11-23T05:26:05.705Z,2.10
2022-11-23T05:28:41.451Z,2.43
2022-11-23T05:31:12.313Z,2.10
2022-11-23T05:33:39.453Z,1.90
2022-11-23T05:36:09.482Z,1.73
2022-11-23T05:38:38.864Z,1.60
2022-11-23T05:41:12.366Z,1.77
2022-11-23T05:43:42.235Z,2.17
2022-11-23T05:46:12.057Z,1.57
2022-11-23T05:48:39.377Z,1.80
2022-11-23T05:51:10.804Z,2.57
2022-11-23T05:53:43.510Z,2.20
2022-11-23T05:56:19.179Z,2.00
2022-11-23T05:58:58.496Z,2.00
2022-11-23T06:01:26.419Z,1.83
2022-11-23T06:03:57.641Z,2.10
2022-11-23T06:06:25.178Z,1.87
2022-11-23T06:08:52.322Z,1.80
2022-11-23T06:11:19.917Z,2.40
2022-11-23T06:13:48.384Z,2.17
2022-11-23T06:16:17.587Z,2.03
2022-11-23T06:18:57.745Z,1.87
2022-11-23T06:21:24.733Z,2.07
2022-11-23T06:23:52.313Z,1.80
2022-11-23T06:26:20.981Z,1.80
2022-11-23T06:28:48.656Z,2.40
2022-11-23T06:31:17.848Z,2.13
2022-11-23T06:33:44.754Z,2.10
2022-11-23T06:36:12.356Z,1.73
2022-11-23T06:38:45.137Z,2.10
2022-11-23T06:41:17.782Z,2.50
2022-11-23T06:43:49.715Z,1.67
2022-11-23T06:46:29.090Z,2.00
2022-11-23T06:48:56.295Z,2.70
2022-11-23T06:51:23.294Z,1.90
2022-11-23T06:53:51.879Z,2.30
2022-11-23T06:56:18.923Z,1.90
2022-11-23T06:58:46.360Z,2.50
2022-11-23T07:01:18.287Z,2.30
2022-11-23T07:04:00.089Z,2.10
2022-11-23T07:06:34.175Z,2.70
2022-11-23T07:09:06.392Z,2.60
2022-11-23T07:11:44.224Z,2.77
2022-11-23T07:14:12.028Z,2.27
2022-11-23T07:16:42.484Z,2.30
2022-11-23T07:19:09.867Z,2.67
2022-11-23T07:21:36.882Z,1.83
2022-11-23T07:24:03.962Z,2.23
2022-11-23T07:26:30.987Z,2.20
2022-11-23T07:28:57.951Z,2.20
2022-11-23T07:31:25.182Z,2.30
2022-11-23T07:33:53.405Z,2.43
2022-11-23T07:36:21.821Z,2.30
2022-11-23T07:38:48.913Z,2.47
2022-11-23T07:41:18.663Z,2.53
2022-11-23T07:44:11.947Z,2.40
2022-11-23T07:46:38.940Z,2.77
2022-11-23T07:49:06.104Z,2.90
2022-11-23T07:51:34.077Z,2.30
2022-11-23T07:54:01.195Z,2.20
2022-11-23T07:56:28.135Z,2.30
2022-11-23T07:58:55.046Z,2.33
2022-11-23T08:01:22.083Z,2.43
2022-11-23T08:03:49.391Z,2.20
2022-11-23T08:06:17.190Z,2.20
2022-11-23T08:08:45.130Z,2.50
2022-11-23T08:11:14.735Z,2.53
2022-11-23T08:13:41.677Z,2.10
2022-11-23T08:16:08.812Z,3.13
2022-11-23T08:18:36.240Z,3.10
2022-11-23T08:21:04.283Z,3.00
2022-11-23T08:23:31.201Z,2.43
2022-11-23T08:25:58.136Z,2.60
2022-11-23T08:28:25.089Z,2.63
2022-11-23T08:30:52.068Z,2.30
2022-11-23T08:33:19.275Z,3.03
2022-11-23T08:35:46.233Z,2.97
2022-11-23T08:38:13.779Z,3.17
2022-11-23T08:40:40.799Z,3.60
2022-11-23T08:43:07.779Z,3.50
2022-11-23T08:45:35.126Z,3.87
2022-11-23T08:48:03.820Z,2.90
2022-11-23T08:50:32.160Z,2.47
2022-11-23T08:52:59.949Z,3.10
2022-11-23T08:55:28.044Z,3.23
2022-11-23T08:57:57.145Z,3.17
2022-11-23T09:00:26.025Z,3.10
2022-11-23T09:02:53.114Z,2.70
2022-11-23T09:05:20.434Z,2.80
2022-11-23T09:07:47.535Z,2.97
2022-11-23T09:10:18.302Z,3.27
2022-11-23T09:12:49.282Z,2.67
2022-11-23T09:15:16.520Z,2.60
2022-11-23T09:17:43.644Z,2.90
2022-11-23T09:20:11.421Z,2.67
2022-11-23T09:22:39.030Z,2.43
2022-11-23T09:25:07.129Z,2.90
2022-11-23T09:27:34.372Z,2.77
2022-11-23T09:30:01.268Z,2.20
2022-11-23T09:32:28.356Z,2.30
2022-11-23T09:34:55.291Z,2.20
2022-11-23T09:37:22.223Z,3.13
2022-11-23T09:39:49.215Z,2.87
2022-11-23T09:43:00.420Z,2.33
2022-11-23T09:45:44.167Z,2.90
2022-11-23T09:48:39.065Z,2.83
2022-11-23T09:51:10.255Z,2.40
2022-11-23T09:54:03.139Z,2.27
2022-11-23T09:56:38.866Z,2.67
2022-11-23T09:59:22.139Z,2.93
2022-11-23T10:01:49.176Z,2.50
2022-11-23T10:04:20.629Z,2.10
2022-11-23T10:06:56.634Z,2.63
2022-11-23T10:10:05.669Z,2.57
2022-11-23T10:12:59.037Z,2.40
2022-11-23T10:15:51.498Z,2.57
2022-11-23T10:18:51.789Z,2.77
2022-11-23T10:21:41.027Z,2.70
2022-11-23T10:24:21.660Z,2.10
2022-11-23T10:26:50.385Z,2.37
2022-11-23T10:29:33.480Z,2.77
2022-11-23T10:32:01.045Z,2.37
2022-11-23T10:35:09.114Z,2.00
2022-11-23T10:37:40.166Z,1.70
2022-11-23T10:40:29.273Z,2.30
2022-11-23T10:43:14.548Z,2.20
2022-11-23T10:45:41.507Z,2.00
2022-11-23T10:48:08.883Z,1.63
2022-11-23T10:50:40.747Z,2.47
2022-11-23T10:53:28.201Z,1.97
2022-11-23T10:55:59.343Z,2.40
2022-11-23T10:58:42.694Z,1.90
2022-11-23T11:01:20.898Z,2.23
2022-11-23T11:03:48.110Z,1.90
2022-11-23T11:06:23.899Z,1.80
2022-11-23T11:09:03.932Z,1.97
2022-11-23T11:11:35.153Z,2.73
2022-11-23T11:14:18.845Z,2.17
2022-11-23T11:16:57.929Z,2.23
2022-11-23T11:19:35.670Z,1.50
2022-11-23T11:22:30.267Z,1.90
2022-11-23T11:24:57.776Z,1.30
2022-11-23T11:27:28.205Z,1.27
2022-11-23T11:30:01.896Z,1.53
2022-11-23T11:33:07.094Z,1.83
2022-11-23T11:35:38.918Z,1.90
2022-11-23T11:38:22.267Z,1.50
2022-11-23T11:40:51.741Z,1.70
2022-11-23T11:43:36.264Z,1.93
2022-11-23T11:46:31.129Z,1.47
2022-11-23T11:49:07.403Z,1.70
2022-11-23T11:51:44.606Z,1.53
2022-11-23T11:54:13.606Z,1.70
2022-11-23T11:56:47.231Z,1.70
2022-11-23T11:59:30.841Z,1.60
2022-11-23T12:02:18.347Z,2.50
2022-11-23T12:05:20.581Z,1.70
2022-11-23T12:08:36.518Z,2.90
2022-11-23T12:11:05.693Z,1.70
2022-11-23T12:13:35.611Z,1.60
2022-11-23T12:16:40.389Z,1.53
2022-11-23T12:19:16.154Z,1.60
2022-11-23T12:22:07.627Z,1.80
2022-11-23T12:24:43.861Z,1.63
2022-11-23T12:27:27.824Z,1.60
2022-11-23T12:30:26.044Z,1.70
2022-11-23T12:33:30.708Z,1.80
2022-11-23T12:36:26.224Z,1.60
2022-11-23T12:39:08.254Z,1.93
2022-11-23T12:42:02.347Z,1.87
2022-11-23T12:45:06.111Z,2.50
2022-11-23T12:47:47.955Z,1.23
2022-11-23T12:50:55.034Z,1.53
2022-11-23T12:53:48.788Z,1.67
2022-11-23T12:56:25.658Z,1.73
2022-11-23T12:58:56.767Z,1.67
2022-11-23T13:01:35.520Z,2.10
2022-11-23T13:04:36.301Z,1.67
2022-11-23T13:07:48.933Z,1.40
2022-11-23T13:11:20.218Z,1.50
2022-11-23T13:14:23.872Z,1.40
2022-11-23T13:17:18.702Z,1.60
2022-11-23T13:20:12.737Z,1.87
2022-11-23T13:22:45.451Z,1.33
2022-11-23T13:25:26.163Z,2.20
2022-11-23T13:27:53.118Z,1.87
2022-11-23T13:31:13.930Z,1.67
2022-11-23T13:33:30.629Z,1.60
2022-11-23T13:36:07.134Z,2.10
2022-11-23T13:38:43.243Z,1.43
2022-11-23T13:42:01.366Z,1.70
2022-11-23T13:44:31.646Z,1.60
2022-11-23T13:47:19.595Z,1.80
2022-11-23T13:49:52.825Z,3.10
2022-11-23T13:52:24.196Z,2.47
2022-11-23T13:55:15.623Z,2.77
2022-11-23T13:58:07.771Z,2.67
2022-11-23T14:00:52.318Z,2.37
2022-11-23T14:03:49.780Z,2.00
2022-11-23T14:06:46.235Z,2.03
2022-11-23T14:09:37.220Z,1.77
2022-11-23T14:12:36.158Z,1.43
2022-11-23T14:15:12.214Z,1.80
2022-11-23T14:18:22.855Z,1.33
2022-11-23T14:21:38.257Z,2.07
2022-11-23T14:24:44.000Z,2.00
2022-11-23T14:27:47.340Z,2.10
2022-11-23T14:30:44.478Z,2.30
2022-11-23T14:34:15.285Z,2.17
2022-11-23T14:37:17.746Z,2.23
2022-11-23T14:40:27.198Z,2.77
2022-11-23T14:42:56.717Z,2.40
2022-11-23T14:45:28.955Z,2.20
2022-11-23T14:47:55.924Z,1.93
2022-11-23T14:50:28.980Z,2.50
2022-11-23T14:52:59.918Z,2.50
2022-11-23T14:55:29.838Z,2.20
2022-11-23T14:58:04.681Z,2.30
2022-11-23T15:00:39.746Z,1.80
2022-11-23T15:03:48.854Z,2.40
2022-11-23T15:06:15.995Z,2.40
2022-11-23T15:09:39.566Z,2.90
2022-11-23T15:12:20.428Z,2.90
2022-11-23T15:14:50.501Z,2.90
2022-11-23T15:17:22.543Z,2.83
2022-11-23T15:20:00.848Z,2.77
2022-11-23T15:22:29.421Z,2.60
2022-11-23T15:25:13.686Z,2.70
2022-11-23T15:27:42.372Z,15.27
2022-11-23T15:30:30.090Z,9.83
2022-11-23T15:33:08.182Z,3.70
2022-11-23T15:35:38.822Z,3.10
2022-11-23T15:38:13.220Z,3.50
2022-11-23T15:40:44.580Z,3.10
2022-11-23T15:43:17.118Z,2.57
2022-11-23T15:45:44.059Z,3.37
2022-11-23T15:48:17.040Z,2.90
2022-11-23T15:50:51.298Z,2.90
2022-11-23T15:53:22.269Z,3.40
2022-11-23T15:55:50.163Z,3.30
2022-11-23T15:58:19.790Z,3.07
2022-11-23T16:01:13.428Z,3.20
2022-11-23T16:03:52.441Z,4.17
2022-11-23T16:06:35.249Z,3.47
2022-11-23T16:09:07.371Z,3.43
2022-11-23T16:11:45.201Z,2.93
2022-11-23T16:14:31.554Z,3.20
2022-11-23T16:17:17.531Z,3.33
2022-11-23T16:19:54.019Z,2.90
2022-11-23T16:22:36.605Z,3.37
2022-11-23T16:25:30.181Z,3.33
2022-11-23T16:28:01.405Z,2.80
2022-11-23T16:30:38.709Z,4.20
2022-11-23T16:33:06.956Z,4.10
2022-11-23T16:35:33.849Z,18.40
2022-11-23T16:38:00.840Z,6.00
2022-11-23T16:40:28.064Z,5.47
2022-11-23T16:42:55.036Z,7.70
2022-11-23T16:45:22.008Z,5.73
2022-11-23T16:47:55.342Z,4.50
2022-11-23T16:50:24.505Z,5.47
2022-11-23T16:52:51.818Z,6.40
2022-11-23T16:55:18.799Z,5.70
2022-11-23T16:57:46.632Z,6.10
2022-11-23T17:00:22.831Z,5.23
2022-11-23T17:02:50.258Z,5.40
2022-11-23T17:05:20.799Z,5.70
2022-11-23T17:07:47.881Z,3.80
2022-11-23T17:10:15.277Z,3.97
2022-11-23T17:12:51.558Z,9.03
2022-11-23T17:15:21.536Z,22.90
2022-11-23T17:17:48.540Z,21.90
2022-11-23T17:20:17.356Z,5.27
2022-11-23T17:22:44.875Z,7.53
2022-11-23T17:25:15.011Z,8.47
2022-11-23T17:27:43.670Z,10.17
2022-11-23T17:30:16.101Z,7.27
2022-11-23T17:32:43.304Z,7.70
2022-11-23T17:35:10.287Z,15.80
2022-11-23T17:37:37.471Z,12.20
2022-11-23T17:40:05.195Z,13.90
2022-11-23T17:42:32.388Z,8.57
2022-11-23T17:44:59.599Z,10.50
2022-11-23T17:47:30.490Z,9.07
2022-11-23T17:49:58.257Z,8.17
2022-11-23T17:52:25.375Z,6.47
2022-11-23T17:54:52.427Z,6.17
2022-11-23T17:57:24.379Z,4.97
2022-11-23T17:59:52.039Z,6.90
2022-11-23T18:02:19.557Z,6.10
2022-11-23T18:04:47.807Z,6.10
2022-11-23T18:07:16.354Z,8.43
2022-11-23T18:09:43.574Z,12.10
2022-11-23T18:12:10.651Z,10.23
2022-11-23T18:14:37.902Z,20.07
2022-11-23T18:17:04.948Z,13.83
2022-11-23T18:19:32.331Z,12.97
2022-11-23T18:21:59.386Z,16.57
2022-11-23T18:24:26.353Z,8.90
2022-11-23T18:26:53.487Z,7.13
2022-11-23T18:29:20.494Z,4.23
2022-11-23T18:31:47.990Z,3.47
2022-11-23T18:34:15.028Z,4.03
2022-11-23T18:36:42.004Z,5.83
2022-11-23T18:39:09.024Z,10.00
2022-11-23T18:41:35.992Z,13.50
2022-11-23T18:44:02.971Z,6.13
2022-11-23T18:46:29.905Z,5.17
2022-11-23T18:48:57.417Z,5.30
2022-11-23T18:51:24.943Z,4.53
2022-11-23T18:53:53.267Z,4.80
2022-11-23T18:56:20.407Z,4.43
2022-11-23T18:58:47.606Z,4.57
2022-11-23T19:01:18.215Z,4.77
2022-11-23T19:03:47.783Z,4.17
2022-11-23T19:06:16.970Z,6.43
2022-11-23T19:08:47.924Z,4.63
2022-11-23T19:11:21.326Z,4.77
2022-11-23T19:13:51.927Z,3.60
2022-11-23T19:16:24.742Z,4.23
2022-11-23T19:19:03.536Z,3.43
2022-11-23T19:21:33.462Z,3.90
2022-11-23T19:24:01.173Z,2.83
2022-11-23T19:26:29.471Z,3.83
2022-11-23T19:28:57.159Z,4.13
2022-11-23T19:31:30.281Z,4.20
2022-11-23T19:34:00.903Z,3.90
2022-11-23T19:36:30.308Z,3.70
2022-11-23T19:39:00.573Z,3.90
2022-11-23T19:41:30.710Z,6.03
2022-11-23T19:43:59.871Z,5.37
2022-11-23T19:46:27.877Z,3.90
2022-11-23T19:48:57.128Z,3.20
2022-11-23T19:51:25.883Z,3.03
2022-11-23T19:53:54.679Z,3.40
2022-11-23T19:56:24.076Z,2.43
2022-11-23T19:58:53.953Z,3.63
2022-11-23T20:01:23.170Z,2.57
2022-11-23T20:03:52.356Z,3.10
2022-11-23T20:06:26.377Z,2.97
2022-11-23T20:09:02.548Z,4.30
2022-11-23T20:11:31.699Z,3.10
2022-11-23T20:13:59.161Z,3.57
2022-11-23T20:16:28.257Z,3.10
2022-11-23T20:18:58.955Z,3.53
2022-11-23T20:21:28.521Z,2.47
2022-11-23T20:24:05.672Z,3.93
2022-11-23T20:26:36.137Z,3.53
2022-11-23T20:29:05.229Z,2.80
2022-11-23T20:31:33.384Z,3.87
2022-11-23T20:34:02.519Z,2.53
2022-11-23T20:36:34.030Z,3.60
2022-11-23T20:39:07.053Z,3.70
2022-11-23T20:41:37.251Z,3.50
2022-11-23T20:44:12.833Z,3.47
2022-11-23T20:49:27.935Z,3.40
2022-11-23T20:51:54.876Z,3.27
2022-11-23T20:54:22.054Z,3.20
2022-11-23T20:56:48.976Z,3.20
2022-11-23T20:59:16.153Z,2.80
2022-11-23T21:01:43.184Z,3.20
2022-11-23T21:04:10.298Z,3.73
2022-11-23T21:06:39.684Z,3.40
2022-11-23T21:09:10.959Z,2.93
2022-11-23T21:11:56.892Z,2.87
2022-11-23T21:14:28.116Z,3.50
2022-11-23T21:17:00.864Z,3.20
2022-11-23T21:19:37.450Z,3.03
2022-11-23T21:22:10.956Z,3.00
2022-11-23T21:24:38.905Z,2.83
2022-11-23T21:27:08.293Z,2.80
2022-11-23T21:29:35.328Z,3.30
2022-11-23T21:32:02.220Z,3.30
2022-11-23T21:34:30.392Z,3.07
2022-11-23T21:36:58.463Z,4.73
2022-11-23T21:39:25.720Z,3.00
2022-11-23T21:41:54.178Z,3.70
2022-11-23T21:44:23.017Z,3.37
2022-11-23T21:46:50.559Z,3.30
2022-11-23T21:49:17.680Z,3.10
2022-11-23T21:51:45.675Z,3.90
2022-11-23T21:54:16.492Z,2.80
2022-11-23T21:56:45.590Z,3.53
2022-11-23T21:59:13.626Z,2.83
2022-11-23T22:01:41.861Z,3.20
2022-11-23T22:04:15.415Z,3.10
2022-11-23T22:06:44.343Z,2.87
2022-11-23T22:09:12.472Z,3.30
2022-11-23T22:11:41.685Z,3.03
2022-11-23T22:14:12.675Z,2.33
2022-11-23T22:16:49.707Z,2.50
2022-11-23T22:19:17.827Z,2.70
2022-11-23T22:21:46.716Z,2.80
2022-11-23T22:24:17.598Z,2.67
2022-11-23T22:26:46.323Z,2.67
2022-11-23T22:29:13.534Z,2.80
2022-11-23T22:31:41.141Z,2.60
2022-11-23T22:34:12.497Z,3.13
2022-11-23T22:36:39.834Z,2.80
2022-11-23T22:39:07.718Z,2.57
2022-11-23T22:41:37.269Z,2.53
2022-11-23T22:44:09.983Z,3.20
2022-11-23T22:46:38.811Z,2.80
2022-11-23T22:49:06.218Z,2.83
2022-11-23T22:51:33.832Z,2.73
2022-11-23T22:54:01.633Z,2.70
2022-11-23T22:56:30.478Z,3.03
2022-11-23T22:58:57.450Z,2.87
2022-11-23T23:01:28.921Z,2.83
2022-11-23T23:03:58.409Z,3.63
2022-11-23T23:06:29.205Z,2.70
2022-11-23T23:09:01.287Z,3.20
2022-11-23T23:11:31.393Z,3.67
2022-11-23T23:13:59.060Z,3.03
2022-11-23T23:16:26.980Z,3.10
2022-11-23T23:18:58.260Z,2.90
2022-11-23T23:21:27.943Z,2.80
2022-11-23T23:23:58.716Z,2.93
2022-11-23T23:26:27.334Z,3.13
2022-11-23T23:28:56.958Z,3.03
2022-11-23T23:31:25.116Z,3.10
2022-11-23T23:33:53.549Z,2.53
2022-11-23T23:36:23.342Z,3.33
2022-11-23T23:38:50.928Z,3.50
2022-11-23T23:41:18.398Z,2.73
2022-11-23T23:43:45.406Z,3.07
2022-11-23T23:46:13.638Z,2.70
2022-11-23T23:48:41.694Z,2.90
2022-11-23T23:51:15.131Z,2.60
2022-11-23T23:53:43.265Z,2.70
2022-11-23T23:56:25.866Z,3.47
2022-11-23T23:59:00.113Z,3.87
